sensor_id;sensor_type;location;lat;lon;timestamp;P1;P2;P0
21358;PMS7003;13506;50.852;20.632;2022-12-10T00:00:07;16.80;13.60;6.60
21358;PMS7003;13506;50.852;20.632;2022-12-10T00:02:57;15.20;13.00;7.00
21358;PMS7003;13506;50.852;20.632;2022-12-10T00:05:25;17.00;13.60;8.20
21358;PMS7003;13506;50.852;20.632;2022-12-10T00:07:53;15.00;12.20;6.60
21358;PMS7003;13506;50.852;20.632;2022-12-10T00:10:20;18.00;14.60;6.00
21358;PMS7003;13506;50.852;20.632;2022-12-10T00:12:49;19.20;17.60;9.00
21358;PMS7003;13506;50.852;20.632;2022-12-10T00:15:17;31.00;24.40;12.60
21358;PMS7003;13506;50.852;20.632;2022-12-10T00:17:45;15.80;15.20;9.80
21358;PMS7003;13506;50.852;20.632;2022-12-10T00:20:12;20.80;19.00;12.40
21358;PMS7003;13506;50.852;20.632;2022-12-10T00:22:40;17.00;14.40;8.60
21358;PMS7003;13506;50.852;20.632;2022-12-10T00:25:08;18.40;12.80;7.40
21358;PMS7003;13506;50.852;20.632;2022-12-10T00:27:36;18.00;15.80;9.60
21358;PMS7003;13506;50.852;20.632;2022-12-10T00:30:05;14.60;11.40;6.00
21358;PMS7003;13506;50.852;20.632;2022-12-10T00:32:34;15.40;13.20;9.00
21358;PMS7003;13506;50.852;20.632;2022-12-10T00:35:02;11.25;7.25;4.50
21358;PMS7003;13506;50.852;20.632;2022-12-10T00:37:30;14.40;10.20;5.00
21358;PMS7003;13506;50.852;20.632;2022-12-10T00:39:59;11.75;10.00;4.25
21358;PMS7003;13506;50.852;20.632;2022-12-10T00:42:27;15.80;14.80;8.60
21358;PMS7003;13506;50.852;20.632;2022-12-10T00:44:54;19.80;17.40;8.60
21358;PMS7003;13506;50.852;20.632;2022-12-10T00:47:24;13.80;13.80;6.20
21358;PMS7003;13506;50.852;20.632;2022-12-10T00:49:52;14.00;11.00;6.25
21358;PMS7003;13506;50.852;20.632;2022-12-10T00:52:20;13.00;12.00;7.20
21358;PMS7003;13506;50.852;20.632;2022-12-10T00:54:47;12.80;11.60;6.60
21358;PMS7003;13506;50.852;20.632;2022-12-10T00:57:15;19.20;16.00;8.40
21358;PMS7003;13506;50.852;20.632;2022-12-10T00:59:43;14.00;14.00;8.60
21358;PMS7003;13506;50.852;20.632;2022-12-10T01:02:11;11.25;10.50;5.50
21358;PMS7003;13506;50.852;20.632;2022-12-10T01:04:40;15.80;11.60;6.80
21358;PMS7003;13506;50.852;20.632;2022-12-10T01:07:08;11.00;9.40;5.20
21358;PMS7003;13506;50.852;20.632;2022-12-10T01:09:35;14.00;13.20;7.00
21358;PMS7003;13506;50.852;20.632;2022-12-10T01:12:03;12.00;10.75;6.00
21358;PMS7003;13506;50.852;20.632;2022-12-10T01:14:32;16.40;12.20;6.00
21358;PMS7003;13506;50.852;20.632;2022-12-10T01:17:01;13.60;11.60;6.20
21358;PMS7003;13506;50.852;20.632;2022-12-10T01:19:32;15.50;12.75;6.25
21358;PMS7003;13506;50.852;20.632;2022-12-10T01:22:03;8.20;7.80;3.60
21358;PMS7003;13506;50.852;20.632;2022-12-10T01:24:31;14.00;10.80;4.00
21358;PMS7003;13506;50.852;20.632;2022-12-10T01:27:00;10.75;10.75;6.00
21358;PMS7003;13506;50.852;20.632;2022-12-10T01:29:27;15.25;14.00;6.50
21358;PMS7003;13506;50.852;20.632;2022-12-10T01:31:56;15.25;13.75;7.00
21358;PMS7003;13506;50.852;20.632;2022-12-10T01:34:24;12.20;9.40;4.00
21358;PMS7003;13506;50.852;20.632;2022-12-10T01:36:55;12.25;9.75;5.50
21358;PMS7003;13506;50.852;20.632;2022-12-10T01:39:24;13.25;12.25;7.50
21358;PMS7003;13506;50.852;20.632;2022-12-10T01:41:53;14.20;13.40;6.40
21358;PMS7003;13506;50.852;20.632;2022-12-10T01:47:27;9.00;9.00;5.00
21358;PMS7003;13506;50.852;20.632;2022-12-10T01:49:57;14.60;13.20;7.00
21358;PMS7003;13506;50.852;20.632;2022-12-10T01:52:26;12.00;8.00;4.00
21358;PMS7003;13506;50.852;20.632;2022-12-10T01:54:56;13.80;10.40;6.00
21358;PMS7003;13506;50.852;20.632;2022-12-10T01:57:24;9.80;8.80;4.00
21358;PMS7003;13506;50.852;20.632;2022-12-10T01:59:54;10.80;10.80;4.40
21358;PMS7003;13506;50.852;20.632;2022-12-10T02:02:31;12.00;12.00;6.00
21358;PMS7003;13506;50.852;20.632;2022-12-10T02:05:13;12.20;10.60;4.80
21358;PMS7003;13506;50.852;20.632;2022-12-10T02:07:52;10.75;9.75;4.00
21358;PMS7003;13506;50.852;20.632;2022-12-10T02:10:34;9.80;8.60;3.60
21358;PMS7003;13506;50.852;20.632;2022-12-10T02:13:16;9.20;9.20;4.00
21358;PMS7003;13506;50.852;20.632;2022-12-10T02:15:50;9.75;9.25;4.50
21358;PMS7003;13506;50.852;20.632;2022-12-10T02:18:20;12.80;9.40;6.00
21358;PMS7003;13506;50.852;20.632;2022-12-10T02:20:55;17.40;10.20;5.20
21358;PMS7003;13506;50.852;20.632;2022-12-10T02:23:28;17.80;14.00;6.40
21358;PMS7003;13506;50.852;20.632;2022-12-10T02:26:04;16.60;11.40;6.60
21358;PMS7003;13506;50.852;20.632;2022-12-10T02:28:42;14.60;12.80;7.00
21358;PMS7003;13506;50.852;20.632;2022-12-10T02:31:21;12.75;11.50;6.00
21358;PMS7003;13506;50.852;20.632;2022-12-10T02:33:54;18.25;14.25;7.00
21358;PMS7003;13506;50.852;20.632;2022-12-10T02:36:27;17.60;14.40;7.80
21358;PMS7003;13506;50.852;20.632;2022-12-10T02:39:00;17.40;14.80;7.20
21358;PMS7003;13506;50.852;20.632;2022-12-10T02:41:31;15.00;12.20;6.40
21358;PMS7003;13506;50.852;20.632;2022-12-10T02:44:04;18.40;16.60;7.40
21358;PMS7003;13506;50.852;20.632;2022-12-10T02:46:38;17.40;14.00;7.00
21358;PMS7003;13506;50.852;20.632;2022-12-10T02:49:09;23.20;16.40;9.00
21358;PMS7003;13506;50.852;20.632;2022-12-10T02:51:41;22.80;22.40;11.20
21358;PMS7003;13506;50.852;20.632;2022-12-10T02:57:04;17.20;16.00;9.00
21358;PMS7003;13506;50.852;20.632;2022-12-10T02:59:53;16.40;14.00;6.40
21358;PMS7003;13506;50.852;20.632;2022-12-10T03:03:04;26.40;22.20;11.80
21358;PMS7003;13506;50.852;20.632;2022-12-10T03:05:46;21.60;18.00;10.80
21358;PMS7003;13506;50.852;20.632;2022-12-10T03:08:19;24.40;17.80;10.20
21358;PMS7003;13506;50.852;20.632;2022-12-10T03:10:53;19.20;14.00;8.40
21358;PMS7003;13506;50.852;20.632;2022-12-10T03:13:27;18.00;16.80;9.60
21358;PMS7003;13506;50.852;20.632;2022-12-10T03:15:59;19.00;18.80;10.00
21358;PMS7003;13506;50.852;20.632;2022-12-10T03:18:30;19.00;17.20;9.60
21358;PMS7003;13506;50.852;20.632;2022-12-10T03:21:02;16.60;15.00;8.60
21358;PMS7003;13506;50.852;20.632;2022-12-10T03:23:34;18.00;15.40;9.00
21358;PMS7003;13506;50.852;20.632;2022-12-10T03:26:07;19.60;18.20;7.00
21358;PMS7003;13506;50.852;20.632;2022-12-10T03:28:37;20.20;17.20;10.80
21358;PMS7003;13506;50.852;20.632;2022-12-10T03:31:09;19.40;16.80;9.00
21358;PMS7003;13506;50.852;20.632;2022-12-10T03:33:40;20.80;18.00;10.00
21358;PMS7003;13506;50.852;20.632;2022-12-10T03:36:09;18.40;11.80;6.60
21358;PMS7003;13506;50.852;20.632;2022-12-10T03:38:38;19.80;17.40;9.40
21358;PMS7003;13506;50.852;20.632;2022-12-10T03:41:07;18.25;17.00;8.00
21358;PMS7003;13506;50.852;20.632;2022-12-10T03:43:35;23.00;17.50;9.00
21358;PMS7003;13506;50.852;20.632;2022-12-10T03:46:15;17.80;15.60;8.00
21358;PMS7003;13506;50.852;20.632;2022-12-10T03:48:44;16.40;16.00;7.40
21358;PMS7003;13506;50.852;20.632;2022-12-10T03:51:12;17.00;14.50;7.75
21358;PMS7003;13506;50.852;20.632;2022-12-10T03:53:40;10.75;10.50;4.00
21358;PMS7003;13506;50.852;20.632;2022-12-10T03:56:08;17.20;14.60;6.80
21358;PMS7003;13506;50.852;20.632;2022-12-10T03:58:36;15.60;9.20;5.20
21358;PMS7003;13506;50.852;20.632;2022-12-10T04:01:04;14.00;10.75;6.50
21358;PMS7003;13506;50.852;20.632;2022-12-10T04:03:34;10.75;10.75;6.00
21358;PMS7003;13506;50.852;20.632;2022-12-10T04:06:04;16.75;13.50;7.00
21358;PMS7003;13506;50.852;20.632;2022-12-10T04:08:37;15.25;13.75;7.00
21358;PMS7003;13506;50.852;20.632;2022-12-10T04:11:05;14.50;12.50;6.00
21358;PMS7003;13506;50.852;20.632;2022-12-10T04:13:36;13.50;11.50;6.00
21358;PMS7003;13506;50.852;20.632;2022-12-10T04:16:23;14.50;11.00;6.00
21358;PMS7003;13506;50.852;20.632;2022-12-10T04:18:55;13.20;13.20;6.00
21358;PMS7003;13506;50.852;20.632;2022-12-10T04:21:27;11.40;9.00;4.00
21358;PMS7003;13506;50.852;20.632;2022-12-10T04:24:18;8.00;8.00;4.00
21358;PMS7003;13506;50.852;20.632;2022-12-10T04:27:08;14.00;11.25;5.50
21358;PMS7003;13506;50.852;20.632;2022-12-10T04:29:39;12.50;10.00;6.00
21358;PMS7003;13506;50.852;20.632;2022-12-10T04:32:07;17.80;15.60;7.60
21358;PMS7003;13506;50.852;20.632;2022-12-10T04:34:35;13.25;12.50;4.75
21358;PMS7003;13506;50.852;20.632;2022-12-10T04:37:04;10.50;10.50;4.00
21358;PMS7003;13506;50.852;20.632;2022-12-10T04:39:33;13.75;13.00;7.25
21358;PMS7003;13506;50.852;20.632;2022-12-10T04:42:02;10.50;10.50;5.50
21358;PMS7003;13506;50.852;20.632;2022-12-10T04:44:30;12.25;10.50;5.00
21358;PMS7003;13506;50.852;20.632;2022-12-10T04:46:58;9.75;9.75;4.00
21358;PMS7003;13506;50.852;20.632;2022-12-10T04:49:26;10.00;10.00;5.00
21358;PMS7003;13506;50.852;20.632;2022-12-10T04:51:54;12.00;11.75;6.00
21358;PMS7003;13506;50.852;20.632;2022-12-10T04:54:23;9.00;9.00;4.00
21358;PMS7003;13506;50.852;20.632;2022-12-10T04:56:53;10.50;10.50;4.00
21358;PMS7003;13506;50.852;20.632;2022-12-10T04:59:22;12.75;12.75;5.50
21358;PMS7003;13506;50.852;20.632;2022-12-10T05:01:50;13.75;11.00;6.00
21358;PMS7003;13506;50.852;20.632;2022-12-10T05:04:18;9.50;9.00;4.00
21358;PMS7003;13506;50.852;20.632;2022-12-10T05:06:47;14.00;12.50;7.00
21358;PMS7003;13506;50.852;20.632;2022-12-10T05:09:15;17.00;12.00;6.25
21358;PMS7003;13506;50.852;20.632;2022-12-10T05:11:45;16.00;12.75;6.00
21358;PMS7003;13506;50.852;20.632;2022-12-10T05:14:14;11.50;10.00;3.00
21358;PMS7003;13506;50.852;20.632;2022-12-10T05:16:42;14.80;14.20;7.20
21358;PMS7003;13506;50.852;20.632;2022-12-10T05:19:10;15.80;11.80;6.00
21358;PMS7003;13506;50.852;20.632;2022-12-10T05:21:38;16.00;12.00;8.00
21358;PMS7003;13506;50.852;20.632;2022-12-10T05:24:23;17.00;14.00;7.40
21358;PMS7003;13506;50.852;20.632;2022-12-10T05:26:53;12.00;11.00;6.00
21358;PMS7003;13506;50.852;20.632;2022-12-10T05:29:23;12.60;12.60;6.40
21358;PMS7003;13506;50.852;20.632;2022-12-10T05:31:51;11.75;11.00;6.00
21358;PMS7003;13506;50.852;20.632;2022-12-10T05:34:19;19.00;16.20;6.80
21358;PMS7003;13506;50.852;20.632;2022-12-10T05:36:47;17.50;15.50;8.50
21358;PMS7003;13506;50.852;20.632;2022-12-10T05:39:15;16.80;13.80;7.00
21358;PMS7003;13506;50.852;20.632;2022-12-10T05:41:43;16.00;14.50;7.25
21358;PMS7003;13506;50.852;20.632;2022-12-10T05:44:12;13.00;13.00;6.25
21358;PMS7003;13506;50.852;20.632;2022-12-10T05:46:40;14.50;12.00;7.75
21358;PMS7003;13506;50.852;20.632;2022-12-10T05:49:08;11.25;9.50;6.00
21358;PMS7003;13506;50.852;20.632;2022-12-10T05:51:37;17.00;13.75;7.00
21358;PMS7003;13506;50.852;20.632;2022-12-10T05:54:05;18.20;16.00;6.80
21358;PMS7003;13506;50.852;20.632;2022-12-10T05:56:34;19.20;15.00;9.40
21358;PMS7003;13506;50.852;20.632;2022-12-10T05:59:03;14.20;14.20;7.00
21358;PMS7003;13506;50.852;20.632;2022-12-10T06:01:33;14.00;11.75;6.00
21358;PMS7003;13506;50.852;20.632;2022-12-10T06:04:02;16.20;16.20;7.00
21358;PMS7003;13506;50.852;20.632;2022-12-10T06:06:32;22.40;17.40;8.80
21358;PMS7003;13506;50.852;20.632;2022-12-10T06:09:02;17.20;16.20;7.40
21358;PMS7003;13506;50.852;20.632;2022-12-10T06:11:30;15.60;13.40;6.60
21358;PMS7003;13506;50.852;20.632;2022-12-10T06:13:58;17.00;12.60;7.40
21358;PMS7003;13506;50.852;20.632;2022-12-10T06:16:27;15.40;13.40;8.40
21358;PMS7003;13506;50.852;20.632;2022-12-10T06:18:57;18.60;15.80;8.20
21358;PMS7003;13506;50.852;20.632;2022-12-10T06:21:25;15.20;15.00;7.00
21358;PMS7003;13506;50.852;20.632;2022-12-10T06:23:53;18.80;14.60;7.60
21358;PMS7003;13506;50.852;20.632;2022-12-10T06:26:22;15.80;11.60;6.00
21358;PMS7003;13506;50.852;20.632;2022-12-10T06:28:52;13.80;13.80;7.00
21358;PMS7003;13506;50.852;20.632;2022-12-10T06:31:20;16.60;14.40;7.60
21358;PMS7003;13506;50.852;20.632;2022-12-10T06:33:48;14.80;14.80;8.00
21358;PMS7003;13506;50.852;20.632;2022-12-10T06:36:18;15.00;13.60;6.60
21358;PMS7003;13506;50.852;20.632;2022-12-10T06:38:46;16.60;16.00;8.00
21358;PMS7003;13506;50.852;20.632;2022-12-10T06:41:15;20.80;14.80;8.40
21358;PMS7003;13506;50.852;20.632;2022-12-10T06:43:45;12.60;12.60;7.20
21358;PMS7003;13506;50.852;20.632;2022-12-10T06:46:13;15.20;15.20;7.60
21358;PMS7003;13506;50.852;20.632;2022-12-10T06:48:43;15.50;14.00;6.00
21358;PMS7003;13506;50.852;20.632;2022-12-10T06:51:11;12.50;11.50;7.00
21358;PMS7003;13506;50.852;20.632;2022-12-10T06:53:41;13.50;11.75;6.00
21358;PMS7003;13506;50.852;20.632;2022-12-10T06:56:11;17.50;13.50;9.00
21358;PMS7003;13506;50.852;20.632;2022-12-10T06:58:42;20.20;18.40;10.20
21358;PMS7003;13506;50.852;20.632;2022-12-10T07:01:11;19.20;16.80;8.20
21358;PMS7003;13506;50.852;20.632;2022-12-10T07:03:39;19.00;17.00;10.25
21358;PMS7003;13506;50.852;20.632;2022-12-10T07:06:09;19.75;16.25;8.50
21358;PMS7003;13506;50.852;20.632;2022-12-10T07:08:38;24.20;16.80;10.00
21358;PMS7003;13506;50.852;20.632;2022-12-10T07:11:07;20.40;17.80;10.80
21358;PMS7003;13506;50.852;20.632;2022-12-10T07:13:36;26.40;18.60;10.60
21358;PMS7003;13506;50.852;20.632;2022-12-10T07:16:11;22.80;20.40;10.00
21358;PMS7003;13506;50.852;20.632;2022-12-10T07:18:40;15.40;15.40;9.00
21358;PMS7003;13506;50.852;20.632;2022-12-10T07:21:18;26.80;22.00;13.00
21358;PMS7003;13506;50.852;20.632;2022-12-10T07:23:47;28.00;23.00;14.40
21358;PMS7003;13506;50.852;20.632;2022-12-10T07:26:17;26.40;21.00;13.20
21358;PMS7003;13506;50.852;20.632;2022-12-10T07:28:45;21.40;18.20;10.40
21358;PMS7003;13506;50.852;20.632;2022-12-10T07:31:13;28.00;22.80;13.40
21358;PMS7003;13506;50.852;20.632;2022-12-10T07:33:41;19.80;19.60;9.80
21358;PMS7003;13506;50.852;20.632;2022-12-10T07:36:10;28.20;24.20;11.60
21358;PMS7003;13506;50.852;20.632;2022-12-10T07:38:39;25.60;21.60;10.40
21358;PMS7003;13506;50.852;20.632;2022-12-10T07:41:08;23.20;19.60;11.40
21358;PMS7003;13506;50.852;20.632;2022-12-10T07:43:41;23.80;20.20;11.80
21358;PMS7003;13506;50.852;20.632;2022-12-10T07:46:11;25.40;20.60;11.40
21358;PMS7003;13506;50.852;20.632;2022-12-10T07:48:42;18.00;17.00;9.00
21358;PMS7003;13506;50.852;20.632;2022-12-10T07:51:11;23.20;20.60;10.60
21358;PMS7003;13506;50.852;20.632;2022-12-10T07:53:39;20.25;17.50;9.00
21358;PMS7003;13506;50.852;20.632;2022-12-10T07:56:07;19.00;17.40;9.80
21358;PMS7003;13506;50.852;20.632;2022-12-10T07:58:35;22.00;19.20;11.40
21358;PMS7003;13506;50.852;20.632;2022-12-10T08:01:08;19.00;18.20;11.40
21358;PMS7003;13506;50.852;20.632;2022-12-10T08:03:38;16.60;16.60;10.80
21358;PMS7003;13506;50.852;20.632;2022-12-10T08:06:07;28.60;21.40;11.40
21358;PMS7003;13506;50.852;20.632;2022-12-10T08:08:37;23.20;20.20;11.60
21358;PMS7003;13506;50.852;20.632;2022-12-10T08:11:05;23.60;23.40;12.60
21358;PMS7003;13506;50.852;20.632;2022-12-10T08:13:34;23.60;21.20;14.20
21358;PMS7003;13506;50.852;20.632;2022-12-10T08:16:03;28.20;23.60;11.60
21358;PMS7003;13506;50.852;20.632;2022-12-10T08:18:35;22.75;19.00;8.50
21358;PMS7003;13506;50.852;20.632;2022-12-10T08:21:04;22.80;21.60;12.00
21358;PMS7003;13506;50.852;20.632;2022-12-10T08:23:32;22.40;19.40;11.80
21358;PMS7003;13506;50.852;20.632;2022-12-10T08:26:02;24.60;23.20;12.40
21358;PMS7003;13506;50.852;20.632;2022-12-10T08:28:30;23.60;17.00;8.40
21358;PMS7003;13506;50.852;20.632;2022-12-10T08:30:59;18.00;18.00;9.25
21358;PMS7003;13506;50.852;20.632;2022-12-10T08:33:27;34.20;29.20;18.40
21358;PMS7003;13506;50.852;20.632;2022-12-10T08:35:58;39.20;28.80;15.20
21358;PMS7003;13506;50.852;20.632;2022-12-10T08:38:28;36.20;33.80;18.00
21358;PMS7003;13506;50.852;20.632;2022-12-10T08:40:57;29.60;25.20;13.20
21358;PMS7003;13506;50.852;20.632;2022-12-10T08:43:24;25.80;19.00;11.00
21358;PMS7003;13506;50.852;20.632;2022-12-10T08:45:52;24.60;19.60;10.60
21358;PMS7003;13506;50.852;20.632;2022-12-10T08:48:20;21.60;19.20;11.20
21358;PMS7003;13506;50.852;20.632;2022-12-10T08:50:49;26.80;22.60;13.00
21358;PMS7003;13506;50.852;20.632;2022-12-10T08:53:18;25.60;25.60;12.60
21358;PMS7003;13506;50.852;20.632;2022-12-10T08:55:48;19.80;18.20;10.20
21358;PMS7003;13506;50.852;20.632;2022-12-10T08:58:17;27.20;20.60;10.60
21358;PMS7003;13506;50.852;20.632;2022-12-10T09:00:45;23.40;18.80;9.80
21358;PMS7003;13506;50.852;20.632;2022-12-10T09:03:13;26.40;23.20;13.60
21358;PMS7003;13506;50.852;20.632;2022-12-10T09:05:41;32.20;29.80;13.80
21358;PMS7003;13506;50.852;20.632;2022-12-10T09:08:09;26.00;18.00;10.00
21358;PMS7003;13506;50.852;20.632;2022-12-10T09:10:39;25.60;18.80;11.60
21358;PMS7003;13506;50.852;20.632;2022-12-10T09:13:08;19.00;17.00;9.00
21358;PMS7003;13506;50.852;20.632;2022-12-10T09:15:36;30.80;28.00;14.20
21358;PMS7003;13506;50.852;20.632;2022-12-10T09:18:04;28.40;26.00;15.80
21358;PMS7003;13506;50.852;20.632;2022-12-10T09:20:32;35.40;30.00;15.60
21358;PMS7003;13506;50.852;20.632;2022-12-10T09:22:59;37.80;27.60;16.80
21358;PMS7003;13506;50.852;20.632;2022-12-10T09:25:27;34.60;23.40;13.20
21358;PMS7003;13506;50.852;20.632;2022-12-10T09:27:56;26.60;21.60;12.20
21358;PMS7003;13506;50.852;20.632;2022-12-10T09:30:24;26.00;25.80;15.00
21358;PMS7003;13506;50.852;20.632;2022-12-10T09:32:52;25.40;23.80;14.80
21358;PMS7003;13506;50.852;20.632;2022-12-10T09:35:20;25.00;20.20;9.80
21358;PMS7003;13506;50.852;20.632;2022-12-10T09:37:47;32.00;25.60;14.00
21358;PMS7003;13506;50.852;20.632;2022-12-10T09:40:16;25.80;21.60;10.60
21358;PMS7003;13506;50.852;20.632;2022-12-10T09:42:48;19.60;16.60;7.80
21358;PMS7003;13506;50.852;20.632;2022-12-10T09:45:26;25.80;18.60;12.00
21358;PMS7003;13506;50.852;20.632;2022-12-10T09:48:04;26.20;22.20;12.00
21358;PMS7003;13506;50.852;20.632;2022-12-10T09:50:49;20.40;19.40;12.20
21358;PMS7003;13506;50.852;20.632;2022-12-10T09:53:21;19.40;16.00;8.20
21358;PMS7003;13506;50.852;20.632;2022-12-10T09:55:51;26.80;18.40;10.40
21358;PMS7003;13506;50.852;20.632;2022-12-10T09:58:20;17.20;16.20;9.40
21358;PMS7003;13506;50.852;20.632;2022-12-10T10:00:52;20.25;16.50;9.25
21358;PMS7003;13506;50.852;20.632;2022-12-10T10:03:25;17.50;15.25;6.25
21358;PMS7003;13506;50.852;20.632;2022-12-10T10:05:53;20.80;20.00;8.80
21358;PMS7003;13506;50.852;20.632;2022-12-10T10:08:26;24.60;21.60;11.80
21358;PMS7003;13506;50.852;20.632;2022-12-10T10:10:58;21.80;18.00;8.40
21358;PMS7003;13506;50.852;20.632;2022-12-10T10:13:30;28.40;21.00;11.40
21358;PMS7003;13506;50.852;20.632;2022-12-10T10:16:24;20.40;18.00;10.00
21358;PMS7003;13506;50.852;20.632;2022-12-10T10:18:58;20.00;18.20;10.40
21358;PMS7003;13506;50.852;20.632;2022-12-10T10:21:28;24.00;19.40;9.40
21358;PMS7003;13506;50.852;20.632;2022-12-10T10:24:00;21.00;19.40;9.80
21358;PMS7003;13506;50.852;20.632;2022-12-10T10:26:29;29.60;26.20;14.20
21358;PMS7003;13506;50.852;20.632;2022-12-10T10:29:00;22.75;20.75;9.00
21358;PMS7003;13506;50.852;20.632;2022-12-10T10:31:33;27.60;21.60;11.00
21358;PMS7003;13506;50.852;20.632;2022-12-10T10:34:05;23.50;16.25;10.00
21358;PMS7003;13506;50.852;20.632;2022-12-10T10:36:40;20.50;18.75;10.50
21358;PMS7003;13506;50.852;20.632;2022-12-10T10:39:09;20.40;18.00;10.40
21358;PMS7003;13506;50.852;20.632;2022-12-10T10:41:45;30.20;22.40;9.80
21358;PMS7003;13506;50.852;20.632;2022-12-10T10:44:19;29.80;26.40;14.60
21358;PMS7003;13506;50.852;20.632;2022-12-10T10:46:52;20.80;19.80;12.40
21358;PMS7003;13506;50.852;20.632;2022-12-10T10:49:23;29.20;24.40;12.60
21358;PMS7003;13506;50.852;20.632;2022-12-10T10:51:58;26.40;24.20;13.00
21358;PMS7003;13506;50.852;20.632;2022-12-10T10:54:32;25.40;22.20;12.00
21358;PMS7003;13506;50.852;20.632;2022-12-10T10:57:02;23.20;21.20;10.80
21358;PMS7003;13506;50.852;20.632;2022-12-10T10:59:33;17.00;16.25;9.50
21358;PMS7003;13506;50.852;20.632;2022-12-10T11:02:05;20.00;19.75;11.75
21358;PMS7003;13506;50.852;20.632;2022-12-10T11:04:47;19.20;18.20;9.80
21358;PMS7003;13506;50.852;20.632;2022-12-10T11:07:22;22.00;20.40;12.60
21358;PMS7003;13506;50.852;20.632;2022-12-10T11:09:53;19.40;18.40;10.60
21358;PMS7003;13506;50.852;20.632;2022-12-10T11:12:23;23.60;19.20;10.00
21358;PMS7003;13506;50.852;20.632;2022-12-10T11:14:59;22.60;18.80;10.00
21358;PMS7003;13506;50.852;20.632;2022-12-10T11:17:28;26.40;23.20;11.60
21358;PMS7003;13506;50.852;20.632;2022-12-10T11:19:58;20.50;20.00;10.25
21358;PMS7003;13506;50.852;20.632;2022-12-10T11:22:30;39.80;32.20;20.00
21358;PMS7003;13506;50.852;20.632;2022-12-10T11:25:00;32.20;28.00;16.60
21358;PMS7003;13506;50.852;20.632;2022-12-10T11:27:34;26.00;20.80;12.80
21358;PMS7003;13506;50.852;20.632;2022-12-10T11:30:15;26.00;23.20;13.20
21358;PMS7003;13506;50.852;20.632;2022-12-10T11:35:44;31.20;24.60;13.80
21358;PMS7003;13506;50.852;20.632;2022-12-10T11:38:22;25.40;24.60;13.20
21358;PMS7003;13506;50.852;20.632;2022-12-10T11:40:57;26.40;21.40;11.40
21358;PMS7003;13506;50.852;20.632;2022-12-10T11:43:38;22.40;21.40;12.20
21358;PMS7003;13506;50.852;20.632;2022-12-10T11:46:15;27.80;21.60;13.00
21358;PMS7003;13506;50.852;20.632;2022-12-10T11:49:18;27.00;24.00;13.00
21358;PMS7003;13506;50.852;20.632;2022-12-10T11:51:57;20.00;17.80;9.40
21358;PMS7003;13506;50.852;20.632;2022-12-10T11:54:36;20.60;17.60;9.00
21358;PMS7003;13506;50.852;20.632;2022-12-10T11:57:20;23.75;17.75;9.50
21358;PMS7003;13506;50.852;20.632;2022-12-10T11:59:59;23.25;19.50;12.25
21358;PMS7003;13506;50.852;20.632;2022-12-10T12:02:45;25.40;22.80;12.60
21358;PMS7003;13506;50.852;20.632;2022-12-10T12:05:42;29.20;23.20;11.20
21358;PMS7003;13506;50.852;20.632;2022-12-10T12:08:24;21.60;18.00;10.40
21358;PMS7003;13506;50.852;20.632;2022-12-10T12:11:06;26.00;23.60;13.00
21358;PMS7003;13506;50.852;20.632;2022-12-10T12:13:51;22.60;18.00;9.80
21358;PMS7003;13506;50.852;20.632;2022-12-10T12:16:27;24.40;18.60;11.40
21358;PMS7003;13506;50.852;20.632;2022-12-10T12:19:02;21.60;21.20;11.80
21358;PMS7003;13506;50.852;20.632;2022-12-10T12:21:37;26.20;18.80;10.20
21358;PMS7003;13506;50.852;20.632;2022-12-10T12:24:09;22.20;18.60;10.00
21358;PMS7003;13506;50.852;20.632;2022-12-10T12:26:44;23.20;17.40;10.00
21358;PMS7003;13506;50.852;20.632;2022-12-10T12:29:18;23.40;18.00;9.60
21358;PMS7003;13506;50.852;20.632;2022-12-10T12:31:54;20.50;19.50;9.00
21358;PMS7003;13506;50.852;20.632;2022-12-10T12:34:27;27.20;24.20;15.20
21358;PMS7003;13506;50.852;20.632;2022-12-10T12:37:07;25.40;19.00;9.20
21358;PMS7003;13506;50.852;20.632;2022-12-10T12:39:38;23.00;20.60;12.60
21358;PMS7003;13506;50.852;20.632;2022-12-10T12:42:14;17.40;14.00;9.00
21358;PMS7003;13506;50.852;20.632;2022-12-10T12:44:54;25.40;21.80;11.20
21358;PMS7003;13506;50.852;20.632;2022-12-10T12:47:31;25.80;25.40;13.60
21358;PMS7003;13506;50.852;20.632;2022-12-10T12:50:11;19.40;18.80;9.60
21358;PMS7003;13506;50.852;20.632;2022-12-10T12:52:52;24.80;21.80;11.80
21358;PMS7003;13506;50.852;20.632;2022-12-10T12:55:25;23.80;20.00;10.60
21358;PMS7003;13506;50.852;20.632;2022-12-10T12:58:05;24.20;22.20;12.60
21358;PMS7003;13506;50.852;20.632;2022-12-10T13:00:43;36.80;29.20;16.00
21358;PMS7003;13506;50.852;20.632;2022-12-10T13:03:18;25.60;23.80;12.40
21358;PMS7003;13506;50.852;20.632;2022-12-10T13:06:11;28.60;24.00;13.20
21358;PMS7003;13506;50.852;20.632;2022-12-10T13:08:45;22.60;21.60;13.00
21358;PMS7003;13506;50.852;20.632;2022-12-10T13:11:16;27.20;21.60;12.80
21358;PMS7003;13506;50.852;20.632;2022-12-10T13:14:09;24.60;22.80;15.60
21358;PMS7003;13506;50.852;20.632;2022-12-10T13:16:59;24.00;21.25;11.50
21358;PMS7003;13506;50.852;20.632;2022-12-10T13:19:35;24.80;24.80;14.00
21358;PMS7003;13506;50.852;20.632;2022-12-10T13:22:07;22.60;22.60;10.80
21358;PMS7003;13506;50.852;20.632;2022-12-10T13:27:39;26.80;23.40;11.80
21358;PMS7003;13506;50.852;20.632;2022-12-10T13:33:03;23.60;21.20;11.60
21358;PMS7003;13506;50.852;20.632;2022-12-10T13:35:42;27.20;24.40;11.80
21358;PMS7003;13506;50.852;20.632;2022-12-10T13:38:23;31.40;28.40;15.60
21358;PMS7003;13506;50.852;20.632;2022-12-10T13:41:01;50.00;43.60;22.00
21358;PMS7003;13506;50.852;20.632;2022-12-10T13:43:53;32.60;27.20;14.00
21358;PMS7003;13506;50.852;20.632;2022-12-10T13:46:51;23.80;21.00;11.60
21358;PMS7003;13506;50.852;20.632;2022-12-10T13:49:25;26.40;23.00;14.60
21358;PMS7003;13506;50.852;20.632;2022-12-10T13:51:59;28.00;24.80;13.20
21358;PMS7003;13506;50.852;20.632;2022-12-10T13:57:41;31.00;26.40;15.00
21358;PMS7003;13506;50.852;20.632;2022-12-10T14:00:48;28.00;22.80;10.60
21358;PMS7003;13506;50.852;20.632;2022-12-10T14:06:23;24.40;23.00;11.00
21358;PMS7003;13506;50.852;20.632;2022-12-10T14:08:57;28.20;22.00;12.20
21358;PMS7003;13506;50.852;20.632;2022-12-10T14:11:29;26.40;23.80;14.40
21358;PMS7003;13506;50.852;20.632;2022-12-10T14:14:01;24.40;24.40;12.60
21358;PMS7003;13506;50.852;20.632;2022-12-10T14:16:31;30.00;25.00;13.00
21358;PMS7003;13506;50.852;20.632;2022-12-10T14:19:03;34.00;25.20;13.60
21358;PMS7003;13506;50.852;20.632;2022-12-10T14:21:34;29.20;23.40;14.40
21358;PMS7003;13506;50.852;20.632;2022-12-10T14:24:05;27.00;22.40;12.40
21358;PMS7003;13506;50.852;20.632;2022-12-10T14:26:55;21.40;21.20;12.20
21358;PMS7003;13506;50.852;20.632;2022-12-10T14:29:25;28.20;25.80;15.20